Time;durP1;ratioP1;P1;durP2;ratioP2;P2;SDS_P1;SDS_P2;PMS_P1;PMS_P2;Temp;Humidity;BMP_temperature;BMP_pressure;BME280_temperature;BME280_humidity;BME280_pressure;Samples;Min_cycle;Max_cycle;Signal;HPM_P1;HPM_P2
2023/02/10 00:00:41;;;;;;;64.95;17.25;;;;;;;-6.06;60.44;95621.06;5105222;28;20024;-84
2023/02/10 00:03:07;;;;;;;77.90;20.65;;;;;;;-6.11;60.33;95631.91;5106155;28;20020;-85
2023/02/10 00:05:32;;;;;;;78.63;23.88;;;;;;;-6.08;60.64;95626.41;5105047;28;20043;-85
2023/02/10 00:07:58;;;;;;;70.50;19.27;;;;;;;-6.08;60.64;95629.00;5104890;28;20028;-84
2023/02/10 00:10:23;;;;;;;49.95;17.13;;;;;;;-6.12;60.31;95632.91;5105892;28;20121;-84
2023/02/10 00:12:49;;;;;;;38.22;13.90;;;;;;;-6.15;60.34;95614.25;5106058;28;20051;-84
2023/02/10 00:15:14;;;;;;;34.22;12.68;;;;;;;-6.13;60.52;95613.09;5104970;28;20310;-85
2023/02/10 00:17:40;;;;;;;27.40;12.52;;;;;;;-6.15;60.46;95624.63;5106168;28;20215;-84
2023/02/10 00:20:07;;;;;;;34.42;12.20;;;;;;;-6.17;60.68;95616.22;5105978;28;20040;-85
2023/02/10 00:22:33;;;;;;;34.00;13.13;;;;;;;-6.23;60.75;95615.06;5105973;28;20099;-84
2023/02/10 00:24:58;;;;;;;27.13;11.35;;;;;;;-6.23;60.81;95606.50;5105837;28;20024;-84
2023/02/10 00:27:24;;;;;;;31.45;11.35;;;;;;;-6.28;60.97;95625.97;5104988;28;20042;-84
2023/02/10 00:29:50;;;;;;;33.75;11.65;;;;;;;-6.29;61.08;95610.56;5104559;28;20020;-85
2023/02/10 00:32:17;;;;;;;33.70;11.23;;;;;;;-6.29;61.06;95610.56;5105658;28;20085;-85
2023/02/10 00:34:43;;;;;;;32.20;11.40;;;;;;;-6.33;60.92;95610.09;5105836;28;20046;-85
2023/02/10 00:37:09;;;;;;;32.85;11.95;;;;;;;-6.34;61.22;95605.84;5106019;28;20023;-85
2023/02/10 00:39:34;;;;;;;31.73;11.98;;;;;;;-6.37;61.22;95608.81;5105338;28;20341;-85
2023/02/10 00:42:00;;;;;;;28.88;11.20;;;;;;;-6.42;61.38;95600.69;5104308;28;20095;-85
2023/02/10 00:44:25;;;;;;;26.63;10.95;;;;;;;-6.44;61.38;95600.03;5105579;28;20028;-84
2023/02/10 00:46:51;;;;;;;27.60;11.13;;;;;;;-6.44;61.38;95596.66;5104121;28;20246;-84
2023/02/10 00:49:16;;;;;;;42.40;13.50;;;;;;;-6.46;61.69;95596.81;5105181;28;20370;-84
2023/02/10 00:51:42;;;;;;;34.65;12.73;;;;;;;-6.50;61.74;95587.72;5105235;28;20073;-85
2023/02/10 00:54:10;;;;;;;28.05;11.55;;;;;;;-6.51;62.02;95591.31;5105525;28;20035;-85
2023/02/10 00:56:36;;;;;;;27.60;10.95;;;;;;;-6.56;61.91;95590.97;5105155;28;20035;-85
2023/02/10 00:59:01;;;;;;;31.58;11.82;;;;;;;-6.57;62.07;95587.59;5104151;28;20040;-84
2023/02/10 01:01:27;;;;;;;31.60;12.80;;;;;;;-6.59;62.37;95583.50;5105175;28;20030;-84
2023/02/10 01:03:52;;;;;;;31.50;11.30;;;;;;;-6.60;62.36;95581.91;5103940;28;20051;-84
2023/02/10 01:06:17;;;;;;;29.73;12.38;;;;;;;-6.62;62.22;95576.06;5105072;28;20086;-84
2023/02/10 01:08:43;;;;;;;29.05;11.45;;;;;;;-6.62;62.32;95576.88;5105030;28;20386;-84
2023/02/10 01:11:11;;;;;;;25.10;11.27;;;;;;;-6.62;62.46;95576.06;5105068;28;20314;-84
2023/02/10 01:13:37;;;;;;;24.17;10.60;;;;;;;-6.63;62.37;95583.06;5104979;28;20028;-85
2023/02/10 01:16:10;;;;;;;27.83;11.15;;;;;;;-6.63;62.41;95584.81;5104842;28;20329;-84
2023/02/10 01:18:36;;;;;;;31.90;10.98;;;;;;;-6.64;62.64;95567.66;5104787;28;20023;-85
2023/02/10 01:21:07;;;;;;;30.58;12.70;;;;;;;-6.64;62.34;95578.81;5104723;28;20087;-84
2023/02/10 01:23:32;;;;;;;25.60;9.85;;;;;;;-6.67;62.40;95574.78;5104751;28;20035;-84
2023/02/10 01:25:59;;;;;;;29.85;9.88;;;;;;;-6.69;62.72;95566.34;5104709;28;20039;-84
2023/02/10 01:28:24;;;;;;;22.50;10.02;;;;;;;-6.68;62.38;95557.59;5103457;28;20020;-84
2023/02/10 01:30:50;;;;;;;24.85;11.10;;;;;;;-6.70;62.61;95562.13;5104400;28;20223;-84
2023/02/10 01:33:15;;;;;;;33.25;10.40;;;;;;;-6.73;62.63;95554.69;5104557;28;20218;-84
2023/02/10 01:35:41;;;;;;;27.77;10.68;;;;;;;-6.71;62.53;95552.75;5104640;28;20047;-84
2023/02/10 01:38:06;;;;;;;26.65;10.70;;;;;;;-6.73;62.78;95556.47;5102625;28;20032;-84
2023/02/10 01:40:32;;;;;;;24.25;10.32;;;;;;;-6.76;62.49;95551.59;5104315;28;20092;-84
2023/02/10 01:42:58;;;;;;;26.88;10.73;;;;;;;-6.77;62.50;95552.59;5104458;28;20213;-85
2023/02/10 01:45:34;;;;;;;29.05;10.05;;;;;;;-6.75;62.62;95554.03;5104088;28;20024;-84
2023/02/10 01:48:00;;;;;;;24.17;9.70;;;;;;;-6.78;62.27;95551.75;5104318;28;20027;-84
2023/02/10 01:50:30;;;;;;;23.58;9.13;;;;;;;-6.78;62.25;95548.38;5102887;28;20195;-84
2023/02/10 01:52:58;;;;;;;29.48;10.90;;;;;;;-6.78;62.46;95549.16;5104047;28;20019;-84
2023/02/10 01:55:29;;;;;;;32.30;11.50;;;;;;;-6.76;62.49;95542.03;5103948;28;20027;-84
2023/02/10 01:57:55;;;;;;;24.35;11.02;;;;;;;-6.77;62.49;95545.63;5104181;28;20088;-85
2023/02/10 02:00:22;;;;;;;25.08;9.85;;;;;;;-6.76;62.62;95533.47;5104133;28;20024;-85
2023/02/10 02:02:48;;;;;;;24.75;11.48;;;;;;;-6.79;62.65;95532.00;5103952;28;20091;-84
2023/02/10 02:05:33;;;;;;;23.42;10.13;;;;;;;-6.77;62.67;95532.66;5102801;28;20024;-85
2023/02/10 02:08:03;;;;;;;28.27;10.27;;;;;;;-6.75;62.53;95512.56;5103999;28;20226;-84
2023/02/10 02:11:00;;;;;;;27.35;10.63;;;;;;;-6.74;62.38;95514.16;5103825;28;20024;-84
2023/02/10 02:13:44;;;;;;;27.17;9.77;;;;;;;-6.72;61.81;95526.97;5103628;28;20020;-84
2023/02/10 02:16:17;;;;;;;19.08;8.63;;;;;;;-6.76;61.77;95521.28;5103936;28;20020;-84
2023/02/10 02:19:18;;;;;;;30.27;11.60;;;;;;;-6.76;61.83;95513.50;5103619;28;20091;-84
2023/02/10 02:22:31;;;;;;;25.70;10.10;;;;;;;-6.79;61.97;95521.63;5100474;28;20028;-84
2023/02/10 02:25:18;;;;;;;28.98;10.77;;;;;;;-6.81;62.01;95512.41;5094834;28;20032;-84
2023/02/10 02:28:11;;;;;;;29.40;11.13;;;;;;;-6.88;62.35;95512.25;5104021;28;20099;-84
2023/02/10 02:30:44;;;;;;;28.83;11.13;;;;;;;-6.90;62.58;95506.41;5105313;28;20314;-84
2023/02/10 02:33:21;;;;;;;29.40;11.20;;;;;;;-6.94;62.42;95518.91;5106489;28;20218;-84
2023/02/10 02:35:59;;;;;;;31.85;12.80;;;;;;;-6.99;62.59;95513.38;5104678;28;20031;-84
2023/02/10 02:38:25;;;;;;;30.08;12.63;;;;;;;-7.05;62.99;95514.03;5105321;28;20234;-84
2023/02/10 02:40:50;;;;;;;35.15;13.18;;;;;;;-7.13;63.57;95517.44;5103544;28;20020;-84
2023/02/10 02:43:16;;;;;;;44.28;13.65;;;;;;;-7.23;63.99;95511.63;5102149;28;20035;-84
2023/02/10 02:46:01;;;;;;;35.25;13.00;;;;;;;-7.34;63.98;95517.13;5103417;28;20075;-84
2023/02/10 02:49:01;;;;;;;33.88;13.60;;;;;;;-7.43;64.40;95518.09;5103467;28;20215;-84
2023/02/10 02:51:32;;;;;;;38.42;12.73;;;;;;;-7.61;64.68;95506.09;5103109;28;20027;-84
2023/02/10 02:54:09;;;;;;;32.50;13.55;;;;;;;-7.74;65.53;95509.13;5103388;28;20020;-84
2023/02/10 02:57:04;;;;;;;39.10;12.85;;;;;;;-7.78;65.87;95507.84;5102997;28;20035;-83
2023/02/10 02:59:42;;;;;;;33.03;12.23;;;;;;;-7.90;66.67;95509.91;5103110;28;20031;-84
2023/02/10 03:02:12;;;;;;;41.38;13.93;;;;;;;-7.96;67.04;95512.31;5102305;28;20041;-83
2023/02/10 03:04:38;;;;;;;33.67;13.63;;;;;;;-7.96;67.40;95499.38;5103411;28;20043;-84
2023/02/10 03:07:04;;;;;;;38.47;14.73;;;;;;;-7.98;67.46;95496.94;5103138;28;20089;-84
2023/02/10 03:09:30;;;;;;;36.20;13.43;;;;;;;-7.95;67.63;95501.81;5102917;28;20315;-83
2023/02/10 03:11:56;;;;;;;40.78;14.80;;;;;;;-7.90;67.66;95507.31;5103023;28;20024;-84
2023/02/10 03:14:22;;;;;;;42.25;14.88;;;;;;;-7.89;67.38;95505.56;5103065;28;20303;-84
2023/02/10 03:16:47;;;;;;;39.15;13.95;;;;;;;-7.89;67.72;95508.94;5103053;28;20027;-84
2023/02/10 03:19:13;;;;;;;41.38;13.77;;;;;;;-7.88;67.23;95515.78;5103068;28;20023;-84
2023/02/10 03:21:41;;;;;;;36.20;13.55;;;;;;;-7.87;67.46;95508.81;5103068;28;20012;-84
2023/02/10 03:24:08;;;;;;;48.55;16.05;;;;;;;-7.85;67.28;95512.03;5102901;28;20023;-84
2023/02/10 03:26:35;;;;;;;42.10;16.98;;;;;;;-7.88;66.99;95518.34;5101752;28;20225;-84
2023/02/10 03:29:00;;;;;;;48.95;15.55;;;;;;;-7.92;67.19;95511.84;5102943;28;20024;-84
2023/02/10 03:31:26;;;;;;;45.30;17.13;;;;;;;-7.96;67.34;95509.75;5102707;28;20316;-84
2023/02/10 03:33:51;;;;;;;36.47;14.88;;;;;;;-7.93;67.55;95515.41;5101669;28;20249;-84
2023/02/10 03:36:17;;;;;;;40.38;14.93;;;;;;;-7.92;67.49;95517.03;5102999;28;20024;-84
2023/02/10 03:38:42;;;;;;;38.35;15.27;;;;;;;-7.88;67.74;95513.19;5101605;28;20099;-84
2023/02/10 03:41:08;;;;;;;48.00;16.10;;;;;;;-7.83;67.42;95514.47;5103059;28;20026;-84
2023/02/10 03:43:33;;;;;;;38.38;15.48;;;;;;;-7.81;67.37;95504.78;5102870;28;20062;-84
2023/02/10 03:46:03;;;;;;;37.05;17.92;;;;;;;-7.78;67.35;95501.84;5102708;28;20036;-85
2023/02/10 03:48:31;;;;;;;34.72;14.38;;;;;;;-7.74;67.36;95488.44;5102652;28;20052;-84
2023/02/10 03:50:59;;;;;;;40.85;15.65;;;;;;;-7.70;66.74;95488.94;5102588;28;20020;-84
2023/02/10 03:53:24;;;;;;;39.85;15.73;;;;;;;-7.69;67.05;95485.38;5102773;28;20024;-84
2023/02/10 03:55:50;;;;;;;42.08;15.88;;;;;;;-7.66;67.06;95482.44;5102702;28;20027;-84
2023/02/10 03:58:16;;;;;;;44.88;15.55;;;;;;;-7.62;66.65;95486.34;5102695;28;20031;-84
2023/02/10 04:00:41;;;;;;;46.25;15.48;;;;;;;-7.59;66.59;95490.38;5102633;28;20016;-84
2023/02/10 04:03:07;;;;;;;49.70;16.92;;;;;;;-7.59;66.31;95485.19;5105314;28;20087;-84
2023/02/10 04:05:32;;;;;;;41.33;14.90;;;;;;;-7.58;66.27;95492.03;5105106;28;20020;-84
2023/02/10 04:07:58;;;;;;;39.53;15.73;;;;;;;-7.58;66.03;95487.66;5106378;28;20024;-85
2023/02/10 04:10:23;;;;;;;37.97;14.38;;;;;;;-7.56;65.97;95485.69;5106022;28;20087;-84
2023/02/10 04:12:49;;;;;;;39.50;14.73;;;;;;;-7.56;65.89;95485.69;5105923;28;20092;-84
2023/02/10 04:15:15;;;;;;;40.80;14.70;;;;;;;-7.57;65.88;95481.50;5106044;28;20044;-84
2023/02/10 04:17:40;;;;;;;43.45;16.05;;;;;;;-7.57;65.86;95478.91;5106097;28;20020;-84
2023/02/10 04:20:07;;;;;;;37.65;13.95;;;;;;;-7.56;65.76;95485.69;5106022;28;20353;-84
2023/02/10 04:22:32;;;;;;;43.72;13.88;;;;;;;-7.54;65.61;95488.13;5105773;28;20024;-84
2023/02/10 04:24:58;;;;;;;29.55;12.85;;;;;;;-7.55;65.26;95494.28;5105830;28;20195;-84
2023/02/10 04:27:23;;;;;;;40.33;14.45;;;;;;;-7.57;65.56;95502.22;5106072;28;20020;-84
2023/02/10 04:29:49;;;;;;;31.35;13.15;;;;;;;-7.58;65.15;95494.59;5105943;28;20307;-84
2023/02/10 04:32:14;;;;;;;31.15;12.05;;;;;;;-7.59;65.27;95491.22;5105486;28;20032;-85
2023/02/10 04:34:40;;;;;;;35.35;12.18;;;;;;;-7.62;65.27;95493.31;5105856;28;20214;-84
2023/02/10 04:37:05;;;;;;;36.30;13.68;;;;;;;-7.61;65.37;95487.97;5105563;28;20016;-84
2023/02/10 04:39:31;;;;;;;34.20;13.88;;;;;;;-7.61;65.62;95487.97;5105603;28;20361;-84
2023/02/10 04:41:56;;;;;;;38.40;13.15;;;;;;;-7.61;65.35;95487.97;5105759;28;20036;-84
2023/02/10 04:44:22;;;;;;;33.80;13.75;;;;;;;-7.62;65.42;95486.34;5105479;28;20277;-84
2023/02/10 04:46:49;;;;;;;35.95;14.10;;;;;;;-7.66;65.51;95490.22;5105163;28;20036;-84
2023/02/10 04:49:15;;;;;;;36.95;14.30;;;;;;;-7.68;65.77;95492.16;5105362;28;20016;-84
2023/02/10 04:51:40;;;;;;;36.33;14.75;;;;;;;-7.67;65.77;95498.97;5105430;28;20020;-84
2023/02/10 04:54:06;;;;;;;34.63;13.02;;;;;;;-7.67;65.54;95501.56;5105353;28;20012;-84
2023/02/10 04:56:31;;;;;;;37.45;11.82;;;;;;;-7.69;65.37;95495.75;5105347;28;20569;-84
2023/02/10 04:58:57;;;;;;;35.90;12.82;;;;;;;-7.76;65.66;95499.91;5105104;28;20329;-84
2023/02/10 05:01:22;;;;;;;33.60;12.18;;;;;;;-7.78;65.47;95494.09;5105006;28;20042;-83
2023/02/10 05:03:48;;;;;;;34.83;13.05;;;;;;;-7.80;65.53;95502.00;5104987;28;20016;-84
2023/02/10 05:06:14;;;;;;;37.53;13.95;;;;;;;-7.81;65.43;95503.00;5103980;28;20091;-84
2023/02/10 05:08:41;;;;;;;33.17;14.00;;;;;;;-7.82;65.41;95500.56;5105126;28;20024;-84
2023/02/10 05:11:14;;;;;;;40.63;15.23;;;;;;;-7.85;65.41;95506.88;5104772;28;20227;-84
2023/02/10 05:13:41;;;;;;;42.47;16.90;;;;;;;-7.79;65.35;95508.03;5104709;28;20020;-84
2023/02/10 05:16:08;;;;;;;45.40;17.90;;;;;;;-7.81;65.82;95517.72;5104876;28;20027;-85
2023/02/10 05:18:34;;;;;;;47.40;16.45;;;;;;;-7.80;66.10;95517.53;5104899;28;20032;-85
2023/02/10 05:21:00;;;;;;;45.83;17.48;;;;;;;-7.82;66.29;95510.91;5104634;28;20416;-84
2023/02/10 05:23:26;;;;;;;45.85;17.00;;;;;;;-7.83;66.19;95533.41;5104611;28;20253;-84
2023/02/10 05:25:52;;;;;;;33.13;14.90;;;;;;;-7.83;66.28;95530.81;5103455;28;20058;-84
2023/02/10 05:28:17;;;;;;;38.92;14.40;;;;;;;-7.82;66.37;95539.38;5103345;28;20028;-85
2023/02/10 05:30:43;;;;;;;37.22;14.80;;;;;;;-7.85;65.93;95531.94;5104521;28;20020;-84
2023/02/10 05:33:08;;;;;;;36.88;14.63;;;;;;;-7.88;66.41;95533.06;5103526;28;20020;-85
2023/02/10 05:35:34;;;;;;;40.75;14.60;;;;;;;-7.89;66.48;95540.00;5104394;28;20031;-85
2023/02/10 05:38:01;;;;;;;45.72;16.48;;;;;;;-7.88;66.99;95538.22;5104303;28;20214;-84
2023/02/10 05:40:30;;;;;;;39.20;14.93;;;;;;;-7.83;67.24;95548.13;5104294;28;20271;-84
2023/02/10 05:42:55;;;;;;;47.10;16.92;;;;;;;-7.78;66.70;95549.25;5104491;28;20028;-85
2023/02/10 05:45:21;;;;;;;46.95;16.02;;;;;;;-7.77;66.57;95558.66;5104249;28;20053;-84
2023/02/10 05:47:47;;;;;;;43.22;15.23;;;;;;;-7.74;66.51;95557.53;5104046;28;20036;-84
2023/02/10 05:50:12;;;;;;;46.92;15.57;;;;;;;-7.75;66.37;95559.31;5104133;28;20024;-84
2023/02/10 05:52:38;;;;;;;51.67;18.02;;;;;;;-7.70;66.58;95558.84;5104301;28;20224;-84
2023/02/10 05:55:04;;;;;;;46.33;15.43;;;;;;;-7.69;65.94;95558.69;5103961;28;20361;-85
2023/02/10 05:57:29;;;;;;;39.47;15.98;;;;;;;-7.64;65.70;95558.19;5104252;28;20039;-84
2023/02/10 05:59:55;;;;;;;39.25;15.90;;;;;;;-7.61;65.87;95563.06;5102698;28;20392;-84
2023/02/10 06:02:20;;;;;;;42.67;15.18;;;;;;;-7.61;65.81;95560.50;5102727;28;20095;-85
2023/02/10 06:04:46;;;;;;;42.90;16.05;;;;;;;-7.54;65.23;95564.03;5103910;28;20019;-85
2023/02/10 06:07:11;;;;;;;42.10;16.10;;;;;;;-7.54;65.44;95561.47;5102843;28;20226;-84
2023/02/10 06:09:39;;;;;;;48.22;18.27;;;;;;;-7.51;65.78;95571.50;5103888;28;20020;-85
2023/02/10 06:12:05;;;;;;;51.28;18.40;;;;;;;-7.47;66.07;95566.81;5103677;28;20016;-85
2023/02/10 06:14:31;;;;;;;44.80;20.70;;;;;;;-7.42;65.63;95572.31;5103808;28;20023;-84
2023/02/10 06:16:56;;;;;;;48.40;19.63;;;;;;;-7.34;65.74;95571.53;5102693;28;20195;-84
2023/02/10 06:19:22;;;;;;;45.22;19.85;;;;;;;-7.30;65.87;95585.78;5102416;28;20030;-85
2023/02/10 06:21:48;;;;;;;47.78;18.52;;;;;;;-7.22;65.97;95579.78;5103643;28;20012;-84
2023/02/10 06:24:14;;;;;;;41.00;16.42;;;;;;;-7.17;66.15;95583.53;5102894;28;20019;-84
2023/02/10 06:26:40;;;;;;;41.40;16.23;;;;;;;-7.10;66.19;95581.94;5103721;28;20015;-84
2023/02/10 06:29:06;;;;;;;40.78;17.92;;;;;;;-7.02;65.52;95590.66;5103518;28;20057;-85
2023/02/10 06:31:31;;;;;;;48.67;16.33;;;;;;;-6.95;65.18;95583.88;5103463;28;20026;-84
2023/02/10 06:33:57;;;;;;;43.20;15.75;;;;;;;-6.91;64.53;95591.16;5103516;28;20035;-85
2023/02/10 06:36:22;;;;;;;43.45;16.27;;;;;;;-6.86;64.09;95590.66;5102235;28;20326;-84
2023/02/10 06:38:48;;;;;;;37.85;15.60;;;;;;;-6.81;63.58;95583.22;5103230;28;20042;-84
2023/02/10 06:41:13;;;;;;;43.55;16.20;;;;;;;-6.77;64.06;95584.50;5103304;28;20214;-84
2023/02/10 06:43:39;;;;;;;34.97;13.30;;;;;;;-6.72;63.79;95592.59;5103473;28;20091;-84
2023/02/10 06:46:05;;;;;;;36.85;14.88;;;;;;;-6.69;63.83;95588.91;5103228;28;20040;-84
2023/02/10 06:48:30;;;;;;;37.10;15.13;;;;;;;-6.63;63.11;95592.59;5103174;28;20036;-84
2023/02/10 06:50:56;;;;;;;37.95;15.40;;;;;;;-6.59;63.17;95596.47;5103119;28;20020;-85
2023/02/10 06:53:21;;;;;;;41.65;15.73;;;;;;;-6.59;63.40;95593.88;5103116;28;20016;-84
2023/02/10 06:55:47;;;;;;;49.97;16.85;;;;;;;-6.54;63.30;95602.00;5103114;28;20016;-85
2023/02/10 06:58:13;;;;;;;42.95;15.77;;;;;;;-6.52;63.49;95605.25;5103393;28;20020;-84
2023/02/10 07:00:38;;;;;;;50.30;17.05;;;;;;;-6.47;63.55;95606.38;5103364;28;20273;-85
2023/02/10 07:03:04;;;;;;;46.67;17.17;;;;;;;-6.42;63.55;95611.06;5101876;28;20095;-85
2023/02/10 07:05:31;;;;;;;47.00;17.08;;;;;;;-6.39;63.32;95602.13;5102936;28;20027;-85
2023/02/10 07:07:58;;;;;;;57.90;18.95;;;;;;;-6.37;63.23;95605.38;5102846;28;20020;-85
2023/02/10 07:10:25;;;;;;;53.40;20.75;;;;;;;-6.29;63.12;95619.16;5103076;28;20019;-85
2023/02/10 07:12:51;;;;;;;44.90;18.35;;;;;;;-6.27;62.89;95614.63;5102829;28;20024;-85
2023/02/10 07:15:18;;;;;;;53.70;18.90;;;;;;;-6.28;62.87;95605.19;5102859;28;20087;-85
2023/02/10 07:17:44;;;;;;;62.05;18.60;;;;;;;-6.17;62.87;95598.03;5102734;28;20049;-85
2023/02/10 07:20:10;;;;;;;53.25;19.25;;;;;;;-6.09;62.96;95591.03;5103061;28;20027;-85
2023/02/10 07:22:36;;;;;;;48.30;18.88;;;;;;;-5.98;62.34;95584.69;5102762;28;20020;-85
2023/02/10 07:25:01;;;;;;;54.28;18.45;;;;;;;-5.90;62.32;95591.63;5101720;28;20458;-84
2023/02/10 07:27:27;;;;;;;47.50;17.35;;;;;;;-5.93;62.42;95594.53;5101636;28;20023;-85
2023/02/10 07:29:52;;;;;;;44.95;18.65;;;;;;;-5.88;62.03;95595.66;5101658;28;20285;-85
2023/02/10 07:32:18;;;;;;;58.33;20.38;;;;;;;-5.76;61.75;95592.66;5102668;28;20035;-85
2023/02/10 07:34:43;;;;;;;46.30;18.02;;;;;;;-5.73;61.58;95587.16;5101268;28;20020;-84
2023/02/10 07:37:09;;;;;;;51.47;18.88;;;;;;;-5.71;61.73;95605.97;5104498;28;20023;-85
2023/02/10 07:39:35;;;;;;;56.70;19.15;;;;;;;-5.66;61.27;95596.69;5106517;28;20095;-85
2023/02/10 07:42:01;;;;;;;48.97;18.33;;;;;;;-5.66;61.26;95588.91;5106711;28;20326;-85
2023/02/10 07:44:26;;;;;;;47.58;17.80;;;;;;;-5.61;61.43;95580.59;5106568;28;20015;-85
2023/02/10 07:46:52;;;;;;;50.00;19.35;;;;;;;-5.56;61.52;95588.69;5106384;28;20111;-85
2023/02/10 07:49:18;;;;;;;52.83;18.63;;;;;;;-5.52;61.10;95582.16;5106166;28;20023;-85
2023/02/10 07:51:44;;;;;;;53.05;18.27;;;;;;;-5.45;60.82;95584.91;5106466;28;20024;-84
2023/02/10 07:54:10;;;;;;;47.72;19.02;;;;;;;-5.40;60.48;95592.19;5106591;28;20016;-85
2023/02/10 07:56:35;;;;;;;47.90;18.33;;;;;;;-5.35;60.22;95597.66;5105016;28;20027;-85
2023/02/10 07:59:01;;;;;;;41.33;16.80;;;;;;;-5.34;59.74;95599.28;5106243;28;20020;-85
2023/02/10 08:01:26;;;;;;;47.03;18.77;;;;;;;-5.34;59.73;95607.91;5105117;28;20012;-85
2023/02/10 08:03:52;;;;;;;45.45;17.23;;;;;;;-5.33;59.84;95611.28;5105979;28;20028;-84
2023/02/10 08:06:22;;;;;;;38.88;16.55;;;;;;;-5.36;60.01;95609.06;5106034;28;20328;-84
2023/02/10 08:08:48;;;;;;;48.13;18.58;;;;;;;-5.32;59.86;95605.13;5106219;28;20103;-85
2023/02/10 08:11:14;;;;;;;43.42;17.65;;;;;;;-5.27;59.41;95602.81;5106086;28;20027;-85
2023/02/10 08:13:40;;;;;;;40.88;17.15;;;;;;;-5.20;59.24;95595.16;5106180;28;20023;-85
2023/02/10 08:16:07;;;;;;;38.78;17.70;;;;;;;-5.10;59.21;95598.34;5105672;28;20016;-85
2023/02/10 08:18:34;;;;;;;43.35;17.25;;;;;;;-5.01;58.41;95601.69;5106034;28;20024;-85
2023/02/10 08:21:00;;;;;;;52.72;18.48;;;;;;;-4.89;58.71;95588.09;5106059;28;20024;-85
2023/02/10 08:23:26;;;;;;;40.60;17.38;;;;;;;-4.77;58.09;95593.69;5105762;28;20028;-85
2023/02/10 08:25:52;;;;;;;47.35;17.73;;;;;;;-4.67;57.95;95589.06;5105831;28;20092;-85
2023/02/10 08:28:18;;;;;;;44.72;17.80;;;;;;;-4.55;57.57;95601.66;5105737;28;20023;-85
2023/02/10 08:30:43;;;;;;;42.25;16.30;;;;;;;-4.51;56.91;95595.91;5105422;28;20036;-85
2023/02/10 08:33:09;;;;;;;41.33;18.00;;;;;;;-4.47;57.19;95593.78;5105830;28;20023;-85
2023/02/10 08:35:36;;;;;;;46.53;17.23;;;;;;;-4.33;57.63;95594.78;5105579;28;20024;-85
2023/02/10 08:38:02;;;;;;;38.60;18.08;;;;;;;-4.21;57.62;95598.59;5105596;28;20047;-85
2023/02/10 08:40:28;;;;;;;40.08;17.52;;;;;;;-4.08;56.25;95597.94;5105504;28;20020;-85
2023/02/10 08:42:53;;;;;;;47.45;17.95;;;;;;;-4.07;55.63;95589.97;5105468;28;20024;-85
2023/02/10 08:45:19;;;;;;;48.65;18.70;;;;;;;-4.07;55.24;95589.13;5105369;28;20027;-85
2023/02/10 08:47:45;;;;;;;39.70;18.30;;;;;;;-4.03;55.23;95595.59;5103251;28;20260;-85
2023/02/10 08:50:10;;;;;;;47.47;19.38;;;;;;;-3.98;55.15;95585.47;5105540;28;20027;-85
2023/02/10 08:52:36;;;;;;;47.38;20.65;;;;;;;-4.00;55.69;95591.84;5103948;28;20020;-85
2023/02/10 08:55:04;;;;;;;52.78;19.33;;;;;;;-4.26;56.46;95601.69;5104151;28;20341;-85
2023/02/10 08:57:30;;;;;;;44.60;20.02;;;;;;;-4.09;56.20;95596.31;5105225;28;20214;-85
2023/02/10 08:59:56;;;;;;;48.67;18.30;;;;;;;-4.01;56.37;95595.44;5105179;28;20103;-84
2023/02/10 09:02:21;;;;;;;41.83;18.02;;;;;;;-3.87;56.46;95595.44;5103987;28;20211;-84
2023/02/10 09:04:47;;;;;;;46.92;20.15;;;;;;;-3.69;56.13;95584.63;5103823;28;20019;-85
2023/02/10 09:07:13;;;;;;;52.63;19.77;;;;;;;-3.49;55.06;95582.28;5105034;28;20019;-84
2023/02/10 09:09:41;;;;;;;45.90;19.65;;;;;;;-3.40;53.96;95571.72;5105063;28;20087;-85
2023/02/10 09:12:11;;;;;;;43.20;19.98;;;;;;;-3.35;53.99;95579.81;5104912;28;20058;-84
2023/02/10 09:14:37;;;;;;;42.38;20.45;;;;;;;-3.33;53.49;95572.63;5103718;28;20028;-84
2023/02/10 09:17:03;;;;;;;53.22;20.98;;;;;;;-3.28;53.64;95565.03;5104815;28;20024;-84
2023/02/10 09:19:28;;;;;;;53.72;20.30;;;;;;;-3.20;53.71;95562.31;5103553;28;20015;-85
2023/02/10 09:21:56;;;;;;;45.85;20.13;;;;;;;-3.18;53.04;95559.53;5104550;28;20012;-84
2023/02/10 09:24:21;;;;;;;51.08;20.92;;;;;;;-3.16;53.09;95567.97;5104586;28;20012;-84
2023/02/10 09:26:47;;;;;;;58.55;21.83;;;;;;;-3.09;53.15;95561.03;5103345;28;20095;-84
2023/02/10 09:29:13;;;;;;;57.05;22.85;;;;;;;-3.02;53.04;95573.13;5103197;28;20024;-83
2023/02/10 09:31:38;;;;;;;49.88;21.52;;;;;;;-2.87;53.08;95564.44;5104579;28;20054;-84
2023/02/10 09:34:04;;;;;;;45.78;20.95;;;;;;;-2.72;52.97;95573.00;5104658;28;20091;-84
2023/02/10 09:36:29;;;;;;;50.33;21.10;;;;;;;-2.69;51.92;95559.56;5104507;28;20106;-84
2023/02/10 09:38:56;;;;;;;55.25;21.05;;;;;;;-2.62;51.85;95562.25;5104516;28;20016;-84
2023/02/10 09:41:33;;;;;;;47.97;19.40;;;;;;;-2.56;51.73;95558.09;5104234;28;20012;-84
2023/02/10 09:44:02;;;;;;;53.88;20.30;;;;;;;-2.52;51.72;95551.50;5103134;28;20082;-84
2023/02/10 09:46:49;;;;;;;44.78;19.92;;;;;;;-2.38;52.04;95558.44;5104280;28;20284;-84
2023/02/10 09:49:46;;;;;;;45.78;19.50;;;;;;;-2.17;51.59;95557.53;5104278;28;20024;-84
2023/02/10 09:52:20;;;;;;;46.28;19.98;;;;;;;-2.02;51.92;95554.81;5103914;28;20234;-84
2023/02/10 09:54:46;;;;;;;42.95;18.85;;;;;;;-1.89;49.59;95546.25;5104107;28;20024;-83
2023/02/10 09:57:20;;;;;;;42.08;18.67;;;;;;;-1.94;48.98;95546.00;5104169;28;20065;-84
2023/02/10 09:59:50;;;;;;;44.33;17.77;;;;;;;-1.91;49.05;95543.81;5103241;28;20054;-85
2023/02/10 10:02:25;;;;;;;40.60;18.08;;;;;;;-1.92;49.16;95539.59;5102951;28;20020;-84
2023/02/10 10:04:52;;;;;;;32.00;15.27;;;;;;;-1.89;48.28;95535.81;5103861;28;20035;-84
2023/02/10 10:07:28;;;;;;;45.45;16.88;;;;;;;-1.77;48.62;95539.47;5103767;28;20023;-84
2023/02/10 10:10:10;;;;;;;47.85;17.75;;;;;;;-1.66;47.86;95525.03;5103848;28;20024;-84
2023/02/10 10:12:36;;;;;;;43.83;17.20;;;;;;;-1.63;47.56;95522.00;5102591;28;20251;-84
2023/02/10 10:15:04;;;;;;;33.40;15.20;;;;;;;-1.62;46.98;95519.22;5102633;28;20485;-84
2023/02/10 10:17:36;;;;;;;38.65;16.00;;;;;;;-1.68;47.31;95517.38;5103549;28;20020;-84
2023/02/10 10:20:39;;;;;;;37.70;17.23;;;;;;;-1.59;47.10;95510.16;5103588;28;20322;-84
2023/02/10 10:23:19;;;;;;;34.67;15.50;;;;;;;-1.52;47.16;95515.44;5103600;28;20027;-84
2023/02/10 10:25:52;;;;;;;29.20;13.57;;;;;;;-1.44;46.49;95512.63;5103600;28;20031;-84
2023/02/10 10:28:31;;;;;;;50.08;16.58;;;;;;;-1.36;46.65;95509.84;5102422;28;20020;-84
2023/02/10 10:31:17;;;;;;;37.97;14.95;;;;;;;-1.28;46.09;95495.78;5103538;28;20028;-84
2023/02/10 10:33:56;;;;;;;34.45;15.77;;;;;;;-1.16;45.73;95503.81;5103424;28;20024;-85
2023/02/10 10:36:22;;;;;;;40.88;14.68;;;;;;;-1.09;45.67;95505.44;5103244;28;20046;-84
2023/02/10 10:38:53;;;;;;;35.05;15.00;;;;;;;-1.06;45.90;95497.22;5103328;28;20326;-84
2023/02/10 10:41:25;;;;;;;38.78;15.02;;;;;;;-1.03;45.88;95496.78;5103237;28;20016;-83
2023/02/10 10:43:52;;;;;;;32.13;14.75;;;;;;;-0.93;45.07;95490.38;5103351;28;20026;-84
2023/02/10 10:46:40;;;;;;;37.83;16.30;;;;;;;-0.87;45.04;95497.44;5102890;28;20346;-83
2023/02/10 10:49:06;;;;;;;36.75;16.75;;;;;;;-0.94;46.55;95494.78;5103347;28;20035;-85
2023/02/10 10:51:34;;;;;;;36.10;16.45;;;;;;;-0.84;47.12;95491.78;5103260;28;20032;-85
2023/02/10 10:54:00;;;;;;;34.03;14.85;;;;;;;-0.65;45.57;95490.19;5102086;28;20077;-85
2023/02/10 10:56:42;;;;;;;31.42;15.13;;;;;;;-0.53;44.14;95479.88;5103172;28;20047;-85
2023/02/10 10:59:40;;;;;;;37.95;14.27;;;;;;;-0.44;44.26;95478.66;5103155;28;20027;-85
2023/02/10 11:02:18;;;;;;;31.65;13.98;;;;;;;-0.38;44.19;95467.34;5102804;28;20098;-85
2023/02/10 11:04:44;;;;;;;39.47;15.68;;;;;;;-0.29;43.80;95476.59;5103145;28;20251;-84
2023/02/10 11:07:13;;;;;;;43.38;18.23;;;;;;;-0.20;44.81;95469.34;5103043;28;20035;-83
2023/02/10 11:09:50;;;;;;;32.35;15.48;;;;;;;-0.01;45.36;95459.78;5103138;28;20019;-85
2023/02/10 11:12:39;;;;;;;37.08;13.45;;;;;;;0.11;43.13;95455.50;5105219;28;20318;-85
2023/02/10 11:15:25;;;;;;;32.65;15.45;;;;;;;0.13;42.80;95461.34;5107277;28;20387;-85
2023/02/10 11:17:53;;;;;;;43.58;15.85;;;;;;;0.14;43.39;95457.72;5099865;28;20098;-85
2023/02/10 11:20:27;;;;;;;42.67;15.10;;;;;;;0.17;43.14;95459.13;5107115;28;20067;-85
2023/02/10 11:23:14;;;;;;;48.58;16.73;;;;;;;0.23;42.81;95455.66;5106993;28;20020;-85